Aérodrome :
LOGIN :

S'inscrire | Disclaimer

   EN    FR    IT 

 










Légende :    VFR   VFR Marginal   IFR   IFR Intensif   IFR Très Intensif
Visi : 
Plafond : 
>= 8 km
>= 3000ft
5 à 8 km
1000 à 3000 ft
1500m à 5 km
500 à 1000 ft
800 à 1500m
200 à 500 ft
< 800m
< 200 ft
Symboles :   Orages  Brouillard  Fortes neiges  Fortes précipitations  Vent > 20 kt
SIGMETs :   Divers  Orages  Givrage  Turbulence  Onde Orograph.  Cendres Volcan.







- Altitude de l'aérodrome : 157 ft
- Code IATA : LIL
- Voir les cartes d'approche


LFQQ - Lille Lesquin

DERNIER METAR :
  • 260900Z AUTO 26015KT 9999 BKN034 BKN047 BKN056 12/04 Q1018 TEMPO 24018G28KT

METARs EXPIRÉS :
  • 260830Z AUTO 25017KT 9999 SCT029 BKN044 BKN050 11/04 Q1018 TEMPO 24018G28KT
  • 260800Z AUTO 26015KT 230V290 9999 SCT025 BKN046 BKN096 11/05 Q1018 NOSIG
  • 260730Z AUTO 26016KT 9999 BKN023 BKN033 BKN049 11/05 Q1017 NOSIG
  • 260700Z AUTO 25015KT 9999 BKN022 BKN100 BKN220 10/05 Q1017 NOSIG
  • 260630Z AUTO 25013KT CAVOK 10/05 Q1017 NOSIG

TAF TAF LFQQ
Valide du 26 à 06h jusqu'au 27 à 12h UTC


260500Z 2606/2712 24012KT 9999 SCT030
TEMPO 2610/2616 24018G28KT
BECMG 2618/2621 VRB02KT
BECMG 2709/2711 16010KT
ATIS : +33 3 20 16 19 54
Pas de NOTAMs connus pour ce terrain.



MET'MAP, la Météo Aéronautique d'un coup d'oeil ! - Copyright ORBIFLY Décembre 2007 - Disclaimer

ORBIFLY MET'MAP TEAM :

Programmation & Développement : Alexandra Zaïnal
Conception & Développement : Baudouin d'Aumeries
Co-Programmation & Développement : Marc-Olivier Méhu
Soutien technique & logistique : Manuel Goepfert

Contact : metmap@orbifly.com




SOURCES & CREDITS :

   NOAA